Phillips, WI (54555)

2:25 AM CDT on March 24, 2017 (GMT -0500)
Downtown (BP station) | | Change Station
Active Advisory: Winter Weather Advisory

Elev 1470 ft 45.69 °N, 90.40 °W | Updated 10 minutes ago

Overcast
Overcast
34.1 °F
Feels Like 34 °F
N
0.0
Wind Variable Wind from SSW
Gusts 0.0 mph

Today
High -- | Low -- °F
--% Chance of Precip.
Yesterday
High -- | Low -- °F
Precip. -- in
Pressure 29.87 in
Visibility 10.0 miles
Clouds Overcast 1700 ft
Windchill 34 °F
Dew Point 31 °F
Humidity 87%
Rainfall 0.00 in
Snow Depth Not available.
6:56 AM 7:19 PM
Waning Crescent, 17% visible
METAR KPBH 240715Z AUTO 16003KT 10SM OVC017 01/00 A2987 RMK AO2 T00110002
Pressure 29.87 in
Visibility 10.0 miles
Clouds Overcast 1700 ft
Windchill 34 °F
Dew Point 31 °F
Humidity 87%
Rainfall 0.00 in
Snow Depth Not available.
6:56 AM 7:19 PM
Waning Crescent, 17% visible
METAR KPBH 240715Z AUTO 16003KT 10SM OVC017 01/00 A2987 RMK AO2 T00110002

Get Your Daily Forecast Email!

Thanks for signing up!

Be on the lookout for a verification email in your inbox.

You'll start receiving severe weather alerts in your inbox..

×

10-Day Weather Forecast

Almanac

Astronomy

Mar. 24, 2017 Rise Set
Actual Time
Civil Twilight
Nautical Twilight
Astronomical Twilight
Moon
Length of Visible Light
Length of Day
Tomorrow will be .
, % of the Moon is Illuminated

Today's Extremes

State Highs State Lows

Community

WunderPhotos

Upload Photos

1,962,540 photos uploaded!

WunderBlog® & News

Nearby

Air Quality

  Air Quality AQ Index Pollutant
Not available.

Snow Depth

Station Depth Elevation

Earthquake Activity

City Distance Mag. Time & Date
Minimum magnitude displayed is 2.5.

Earthquake Activity

City Distance Mag. Time & Date
Minimum magnitude displayed is 2.5.

Coastal Water Temperatures

Place Temperature

Stations

Nearby Weather Stations

Station Location Temp. Windchill Dew Point Humidity Wind Precip. Elev Updated Type
                   

Watches & Warnings

Winter Weather Advisory
Issued: 8:37 PM CDT Mar. 23, 2017 – National Weather Service

... Winter Weather Advisory now in effect until 9 am CDT Friday...

* locations... parts of northwest Wisconsin, including price,
Iron, and Ashland counties, and also the Bayfield peninsula
and areas of Sawyer County east of Hayward.

* Timing... expect a wintry mix through the wee hours of Friday
morning, changing to plain rain and coming to an end towards
mid morning Friday.

* Impacts... light ice accumulations may lead to slippery stretches
on area roads... especially across bridges and overpasses.

Precautionary/preparedness actions...

A Winter Weather Advisory for mixed precipitation means a mixture
of freezing rain and sleet is expected. Small accumulations of
ice are expected on untreated roads and sidewalks. Anyone with
travel plans should be prepared for slippery roads. Slow down
when driving and allow for extra stopping distance because you
may lose control of your vehicle if you try to slow down or stop
quickly.